sensor_id;sensor_type;location;lat;lon;timestamp;P1;durP1;ratioP1;P2;durP2;ratioP2
22449;SDS011;11392;57.390;-2.468;2023-09-19T00:00:48;0.82;;;0.70;;
22449;SDS011;11392;57.390;-2.468;2023-09-19T00:03:16;3.67;;;0.70;;
22449;SDS011;11392;57.390;-2.468;2023-09-19T00:05:43;1.52;;;0.93;;
22449;SDS011;11392;57.390;-2.468;2023-09-19T00:08:12;0.90;;;0.65;;
22449;SDS011;11392;57.390;-2.468;2023-09-19T00:10:42;1.27;;;0.60;;
22449;SDS011;11392;57.390;-2.468;2023-09-19T00:13:10;0.60;;;0.50;;
22449;SDS011;11392;57.390;-2.468;2023-09-19T00:15:45;1.58;;;0.60;;
22449;SDS011;11392;57.390;-2.468;2023-09-19T00:18:16;0.63;;;0.50;;
22449;SDS011;11392;57.390;-2.468;2023-09-19T00:20:47;1.65;;;0.95;;
22449;SDS011;11392;57.390;-2.468;2023-09-19T00:23:16;1.10;;;0.40;;
22449;SDS011;11392;57.390;-2.468;2023-09-19T00:25:43;0.95;;;0.45;;
22449;SDS011;11392;57.390;-2.468;2023-09-19T00:28:11;1.23;;;0.93;;
22449;SDS011;11392;57.390;-2.468;2023-09-19T00:30:39;3.13;;;0.60;;
22449;SDS011;11392;57.390;-2.468;2023-09-19T00:33:10;0.68;;;0.30;;
22449;SDS011;11392;57.390;-2.468;2023-09-19T00:35:46;0.63;;;0.43;;
22449;SDS011;11392;57.390;-2.468;2023-09-19T00:38:18;0.75;;;0.50;;
22449;SDS011;11392;57.390;-2.468;2023-09-19T00:40:53;1.15;;;0.60;;
22449;SDS011;11392;57.390;-2.468;2023-09-19T00:43:24;0.93;;;0.50;;
22449;SDS011;11392;57.390;-2.468;2023-09-19T00:45:52;0.85;;;0.50;;
22449;SDS011;11392;57.390;-2.468;2023-09-19T00:48:21;2.20;;;0.60;;
22449;SDS011;11392;57.390;-2.468;2023-09-19T00:50:49;0.75;;;0.50;;
22449;SDS011;11392;57.390;-2.468;2023-09-19T00:53:18;0.73;;;0.40;;
22449;SDS011;11392;57.390;-2.468;2023-09-19T00:55:49;1.75;;;0.60;;
22449;SDS011;11392;57.390;-2.468;2023-09-19T00:58:18;0.80;;;0.40;;
22449;SDS011;11392;57.390;-2.468;2023-09-19T01:00:49;1.73;;;0.47;;
22449;SDS011;11392;57.390;-2.468;2023-09-19T01:03:17;1.50;;;0.50;;
22449;SDS011;11392;57.390;-2.468;2023-09-19T01:05:45;1.30;;;0.40;;
22449;SDS011;11392;57.390;-2.468;2023-09-19T01:08:12;0.75;;;0.40;;
22449;SDS011;11392;57.390;-2.468;2023-09-19T01:10:52;1.10;;;0.47;;
22449;SDS011;11392;57.390;-2.468;2023-09-19T01:14:13;0.30;;;0.30;;
22449;SDS011;11392;57.390;-2.468;2023-09-19T01:16:32;1.92;;;0.45;;
22449;SDS011;11392;57.390;-2.468;2023-09-19T01:24:44;1.65;;;0.60;;
22449;SDS011;11392;57.390;-2.468;2023-09-19T01:30:26;1.27;;;0.50;;
22449;SDS011;11392;57.390;-2.468;2023-09-19T01:32:57;0.95;;;0.60;;
22449;SDS011;11392;57.390;-2.468;2023-09-19T01:35:25;0.82;;;0.55;;
22449;SDS011;11392;57.390;-2.468;2023-09-19T01:37:52;2.10;;;0.60;;
22449;SDS011;11392;57.390;-2.468;2023-09-19T01:40:21;2.60;;;0.52;;
22449;SDS011;11392;57.390;-2.468;2023-09-19T01:51:09;1.88;;;0.63;;
22449;SDS011;11392;57.390;-2.468;2023-09-19T01:53:42;0.50;;;0.40;;
22449;SDS011;11392;57.390;-2.468;2023-09-19T01:59:17;0.75;;;0.52;;
22449;SDS011;11392;57.390;-2.468;2023-09-19T02:01:50;2.90;;;0.52;;
22449;SDS011;11392;57.390;-2.468;2023-09-19T02:04:20;0.90;;;0.60;;
22449;SDS011;11392;57.390;-2.468;2023-09-19T02:06:47;1.98;;;0.50;;
22449;SDS011;11392;57.390;-2.468;2023-09-19T02:09:14;0.28;;;0.28;;
22449;SDS011;11392;57.390;-2.468;2023-09-19T02:11:41;2.47;;;0.50;;
22449;SDS011;11392;57.390;-2.468;2023-09-19T02:14:08;2.28;;;0.65;;
22449;SDS011;11392;57.390;-2.468;2023-09-19T02:16:35;3.42;;;0.63;;
22449;SDS011;11392;57.390;-2.468;2023-09-19T02:19:04;0.75;;;0.40;;
22449;SDS011;11392;57.390;-2.468;2023-09-19T02:21:32;2.13;;;0.40;;
22449;SDS011;11392;57.390;-2.468;2023-09-19T02:23:59;1.60;;;0.70;;
22449;SDS011;11392;57.390;-2.468;2023-09-19T02:26:26;0.55;;;0.55;;
22449;SDS011;11392;57.390;-2.468;2023-09-19T02:28:54;0.57;;;0.40;;
22449;SDS011;11392;57.390;-2.468;2023-09-19T02:31:21;0.55;;;0.25;;
22449;SDS011;11392;57.390;-2.468;2023-09-19T02:33:49;2.60;;;0.45;;
22449;SDS011;11392;57.390;-2.468;2023-09-19T02:36:16;1.05;;;0.57;;
22449;SDS011;11392;57.390;-2.468;2023-09-19T02:38:44;0.40;;;0.40;;
22449;SDS011;11392;57.390;-2.468;2023-09-19T02:41:11;3.17;;;0.57;;
22449;SDS011;11392;57.390;-2.468;2023-09-19T02:43:38;1.20;;;0.52;;
22449;SDS011;11392;57.390;-2.468;2023-09-19T02:46:06;2.42;;;0.63;;
22449;SDS011;11392;57.390;-2.468;2023-09-19T02:48:33;2.95;;;0.82;;
22449;SDS011;11392;57.390;-2.468;2023-09-19T02:51:02;1.17;;;0.50;;
22449;SDS011;11392;57.390;-2.468;2023-09-19T02:53:30;0.73;;;0.50;;
22449;SDS011;11392;57.390;-2.468;2023-09-19T02:55:58;0.40;;;0.40;;
22449;SDS011;11392;57.390;-2.468;2023-09-19T02:58:25;1.27;;;1.05;;
22449;SDS011;11392;57.390;-2.468;2023-09-19T03:00:54;0.77;;;0.40;;
22449;SDS011;11392;57.390;-2.468;2023-09-19T03:03:21;1.05;;;0.55;;
22449;SDS011;11392;57.390;-2.468;2023-09-19T03:05:49;0.40;;;0.40;;
22449;SDS011;11392;57.390;-2.468;2023-09-19T03:08:20;0.50;;;0.50;;
22449;SDS011;11392;57.390;-2.468;2023-09-19T03:10:48;0.55;;;0.50;;
22449;SDS011;11392;57.390;-2.468;2023-09-19T03:13:15;1.00;;;0.20;;
22449;SDS011;11392;57.390;-2.468;2023-09-19T03:15:43;2.22;;;0.50;;
22449;SDS011;11392;57.390;-2.468;2023-09-19T03:18:12;1.42;;;0.45;;
22449;SDS011;11392;57.390;-2.468;2023-09-19T03:20:40;1.08;;;0.50;;
22449;SDS011;11392;57.390;-2.468;2023-09-19T03:23:07;0.40;;;0.40;;
22449;SDS011;11392;57.390;-2.468;2023-09-19T03:25:34;1.17;;;0.50;;
22449;SDS011;11392;57.390;-2.468;2023-09-19T03:28:04;1.77;;;0.73;;
22449;SDS011;11392;57.390;-2.468;2023-09-19T03:30:34;1.80;;;0.50;;
22449;SDS011;11392;57.390;-2.468;2023-09-19T03:33:01;2.75;;;0.55;;
22449;SDS011;11392;57.390;-2.468;2023-09-19T03:35:28;1.15;;;0.50;;
22449;SDS011;11392;57.390;-2.468;2023-09-19T03:37:55;0.85;;;0.30;;
22449;SDS011;11392;57.390;-2.468;2023-09-19T03:40:22;1.08;;;0.60;;
22449;SDS011;11392;57.390;-2.468;2023-09-19T03:42:50;2.42;;;0.70;;
22449;SDS011;11392;57.390;-2.468;2023-09-19T03:45:17;2.58;;;0.50;;
22449;SDS011;11392;57.390;-2.468;2023-09-19T03:47:44;0.60;;;0.60;;
22449;SDS011;11392;57.390;-2.468;2023-09-19T03:50:14;2.95;;;0.57;;
22449;SDS011;11392;57.390;-2.468;2023-09-19T03:52:44;1.58;;;0.65;;
22449;SDS011;11392;57.390;-2.468;2023-09-19T03:55:11;1.00;;;0.50;;
22449;SDS011;11392;57.390;-2.468;2023-09-19T03:57:39;1.38;;;0.50;;
22449;SDS011;11392;57.390;-2.468;2023-09-19T04:00:06;0.98;;;0.70;;
22449;SDS011;11392;57.390;-2.468;2023-09-19T04:02:41;2.28;;;0.43;;
22449;SDS011;11392;57.390;-2.468;2023-09-19T04:05:08;3.33;;;0.70;;
22449;SDS011;11392;57.390;-2.468;2023-09-19T04:07:36;1.35;;;0.68;;
22449;SDS011;11392;57.390;-2.468;2023-09-19T04:10:04;0.90;;;0.70;;
22449;SDS011;11392;57.390;-2.468;2023-09-19T04:12:32;2.88;;;0.82;;
22449;SDS011;11392;57.390;-2.468;2023-09-19T04:14:59;5.15;;;0.70;;
22449;SDS011;11392;57.390;-2.468;2023-09-19T04:17:26;2.80;;;0.60;;
22449;SDS011;11392;57.390;-2.468;2023-09-19T04:19:53;4.00;;;0.80;;
22449;SDS011;11392;57.390;-2.468;2023-09-19T04:22:20;1.08;;;0.40;;
22449;SDS011;11392;57.390;-2.468;2023-09-19T04:24:47;2.78;;;1.10;;
22449;SDS011;11392;57.390;-2.468;2023-09-19T04:27:14;2.70;;;1.55;;
22449;SDS011;11392;57.390;-2.468;2023-09-19T04:29:41;1.23;;;0.70;;
22449;SDS011;11392;57.390;-2.468;2023-09-19T04:32:08;1.38;;;0.73;;
22449;SDS011;11392;57.390;-2.468;2023-09-19T04:34:36;0.90;;;0.50;;
22449;SDS011;11392;57.390;-2.468;2023-09-19T04:37:07;2.67;;;0.63;;
22449;SDS011;11392;57.390;-2.468;2023-09-19T04:39:34;1.13;;;0.40;;
22449;SDS011;11392;57.390;-2.468;2023-09-19T04:42:01;1.08;;;0.52;;
22449;SDS011;11392;57.390;-2.468;2023-09-19T04:44:28;2.58;;;0.60;;
22449;SDS011;11392;57.390;-2.468;2023-09-19T04:46:55;1.05;;;0.68;;
22449;SDS011;11392;57.390;-2.468;2023-09-19T04:49:22;1.00;;;0.63;;
22449;SDS011;11392;57.390;-2.468;2023-09-19T04:51:49;2.72;;;0.60;;
22449;SDS011;11392;57.390;-2.468;2023-09-19T04:54:16;0.73;;;0.40;;
22449;SDS011;11392;57.390;-2.468;2023-09-19T04:56:44;1.38;;;0.55;;
22449;SDS011;11392;57.390;-2.468;2023-09-19T04:59:11;1.60;;;0.70;;
22449;SDS011;11392;57.390;-2.468;2023-09-19T05:01:38;0.95;;;0.50;;
22449;SDS011;11392;57.390;-2.468;2023-09-19T05:04:06;2.80;;;0.60;;
22449;SDS011;11392;57.390;-2.468;2023-09-19T05:06:33;2.47;;;0.63;;
22449;SDS011;11392;57.390;-2.468;2023-09-19T05:09:00;1.00;;;0.50;;
22449;SDS011;11392;57.390;-2.468;2023-09-19T05:11:27;2.15;;;0.47;;
22449;SDS011;11392;57.390;-2.468;2023-09-19T05:13:56;2.15;;;0.60;;
22449;SDS011;11392;57.390;-2.468;2023-09-19T05:16:28;2.03;;;0.80;;
22449;SDS011;11392;57.390;-2.468;2023-09-19T05:18:58;1.48;;;0.60;;
22449;SDS011;11392;57.390;-2.468;2023-09-19T05:21:26;0.95;;;0.60;;
22449;SDS011;11392;57.390;-2.468;2023-09-19T05:23:55;1.05;;;0.50;;
22449;SDS011;11392;57.390;-2.468;2023-09-19T05:26:22;2.47;;;0.40;;
22449;SDS011;11392;57.390;-2.468;2023-09-19T05:28:49;1.83;;;0.60;;
22449;SDS011;11392;57.390;-2.468;2023-09-19T05:31:16;1.45;;;0.70;;
22449;SDS011;11392;57.390;-2.468;2023-09-19T05:33:44;2.00;;;0.68;;
22449;SDS011;11392;57.390;-2.468;2023-09-19T05:36:11;1.40;;;0.60;;
22449;SDS011;11392;57.390;-2.468;2023-09-19T05:38:38;3.35;;;0.60;;
22449;SDS011;11392;57.390;-2.468;2023-09-19T05:41:07;1.75;;;0.50;;
22449;SDS011;11392;57.390;-2.468;2023-09-19T05:43:36;1.50;;;0.57;;
22449;SDS011;11392;57.390;-2.468;2023-09-19T05:46:04;1.63;;;0.70;;
22449;SDS011;11392;57.390;-2.468;2023-09-19T05:48:31;1.20;;;0.52;;
22449;SDS011;11392;57.390;-2.468;2023-09-19T05:50:58;2.15;;;0.68;;
22449;SDS011;11392;57.390;-2.468;2023-09-19T05:53:27;4.75;;;0.85;;
22449;SDS011;11392;57.390;-2.468;2023-09-19T05:55:55;0.50;;;0.50;;
22449;SDS011;11392;57.390;-2.468;2023-09-19T05:58:22;3.58;;;0.75;;
22449;SDS011;11392;57.390;-2.468;2023-09-19T06:00:49;2.90;;;0.50;;
22449;SDS011;11392;57.390;-2.468;2023-09-19T06:03:16;4.60;;;0.80;;
22449;SDS011;11392;57.390;-2.468;2023-09-19T06:05:45;5.05;;;0.70;;
22449;SDS011;11392;57.390;-2.468;2023-09-19T06:08:17;0.75;;;0.50;;
22449;SDS011;11392;57.390;-2.468;2023-09-19T06:10:44;5.05;;;0.85;;
22449;SDS011;11392;57.390;-2.468;2023-09-19T06:13:13;3.40;;;1.17;;
22449;SDS011;11392;57.390;-2.468;2023-09-19T06:15:41;5.25;;;2.15;;
22449;SDS011;11392;57.390;-2.468;2023-09-19T06:18:10;1.55;;;0.75;;
22449;SDS011;11392;57.390;-2.468;2023-09-19T06:20:41;2.88;;;0.60;;
22449;SDS011;11392;57.390;-2.468;2023-09-19T06:23:11;0.88;;;0.57;;
22449;SDS011;11392;57.390;-2.468;2023-09-19T06:25:38;1.05;;;0.50;;
22449;SDS011;11392;57.390;-2.468;2023-09-19T06:28:07;0.52;;;0.52;;
22449;SDS011;11392;57.390;-2.468;2023-09-19T06:30:36;0.73;;;0.50;;
22449;SDS011;11392;57.390;-2.468;2023-09-19T06:33:06;3.47;;;0.50;;
22449;SDS011;11392;57.390;-2.468;2023-09-19T06:35:33;0.70;;;0.50;;
22449;SDS011;11392;57.390;-2.468;2023-09-19T06:38:04;1.20;;;0.40;;
22449;SDS011;11392;57.390;-2.468;2023-09-19T06:40:33;1.20;;;0.63;;
22449;SDS011;11392;57.390;-2.468;2023-09-19T06:43:01;2.00;;;0.77;;
22449;SDS011;11392;57.390;-2.468;2023-09-19T06:45:28;4.30;;;0.90;;
22449;SDS011;11392;57.390;-2.468;2023-09-19T06:47:55;1.58;;;0.90;;
22449;SDS011;11392;57.390;-2.468;2023-09-19T06:50:25;3.05;;;0.90;;
22449;SDS011;11392;57.390;-2.468;2023-09-19T06:52:54;3.15;;;0.90;;
22449;SDS011;11392;57.390;-2.468;2023-09-19T06:55:24;2.13;;;0.90;;
22449;SDS011;11392;57.390;-2.468;2023-09-19T06:57:55;1.35;;;0.60;;
22449;SDS011;11392;57.390;-2.468;2023-09-19T07:00:22;1.92;;;0.80;;
22449;SDS011;11392;57.390;-2.468;2023-09-19T07:02:59;1.85;;;0.70;;
22449;SDS011;11392;57.390;-2.468;2023-09-19T07:05:31;1.10;;;0.40;;
22449;SDS011;11392;57.390;-2.468;2023-09-19T07:07:58;1.05;;;0.65;;
22449;SDS011;11392;57.390;-2.468;2023-09-19T07:10:27;1.80;;;1.10;;
22449;SDS011;11392;57.390;-2.468;2023-09-19T07:12:55;0.98;;;0.60;;
22449;SDS011;11392;57.390;-2.468;2023-09-19T07:15:24;0.60;;;0.50;;
22449;SDS011;11392;57.390;-2.468;2023-09-19T07:17:52;2.00;;;0.50;;
22449;SDS011;11392;57.390;-2.468;2023-09-19T07:20:20;2.05;;;0.82;;
22449;SDS011;11392;57.390;-2.468;2023-09-19T07:22:47;3.33;;;0.80;;
22449;SDS011;11392;57.390;-2.468;2023-09-19T07:25:17;1.55;;;0.68;;
22449;SDS011;11392;57.390;-2.468;2023-09-19T07:27:44;0.85;;;0.50;;
22449;SDS011;11392;57.390;-2.468;2023-09-19T07:30:11;1.88;;;0.70;;
22449;SDS011;11392;57.390;-2.468;2023-09-19T07:32:38;1.05;;;0.68;;
22449;SDS011;11392;57.390;-2.468;2023-09-19T07:35:07;1.95;;;0.90;;
22449;SDS011;11392;57.390;-2.468;2023-09-19T07:37:34;1.63;;;0.60;;
22449;SDS011;11392;57.390;-2.468;2023-09-19T07:40:02;3.03;;;0.65;;
22449;SDS011;11392;57.390;-2.468;2023-09-19T07:42:33;1.75;;;0.70;;
22449;SDS011;11392;57.390;-2.468;2023-09-19T07:45:01;3.33;;;0.90;;
22449;SDS011;11392;57.390;-2.468;2023-09-19T07:47:29;3.60;;;0.80;;
22449;SDS011;11392;57.390;-2.468;2023-09-19T07:49:59;1.50;;;0.65;;
22449;SDS011;11392;57.390;-2.468;2023-09-19T07:52:28;4.63;;;1.02;;
22449;SDS011;11392;57.390;-2.468;2023-09-19T07:54:56;1.80;;;0.63;;
22449;SDS011;11392;57.390;-2.468;2023-09-19T07:57:24;2.58;;;0.65;;
22449;SDS011;11392;57.390;-2.468;2023-09-19T07:59:51;2.95;;;0.60;;
22449;SDS011;11392;57.390;-2.468;2023-09-19T08:02:18;3.22;;;1.30;;
22449;SDS011;11392;57.390;-2.468;2023-09-19T08:04:45;5.32;;;2.30;;
22449;SDS011;11392;57.390;-2.468;2023-09-19T08:07:12;3.35;;;2.00;;
22449;SDS011;11392;57.390;-2.468;2023-09-19T08:09:40;2.75;;;2.45;;
22449;SDS011;11392;57.390;-2.468;2023-09-19T08:12:07;2.30;;;2.10;;
22449;SDS011;11392;57.390;-2.468;2023-09-19T08:14:36;4.05;;;3.03;;
22449;SDS011;11392;57.390;-2.468;2023-09-19T08:17:04;2.38;;;1.73;;
22449;SDS011;11392;57.390;-2.468;2023-09-19T08:19:32;3.78;;;1.90;;
22449;SDS011;11392;57.390;-2.468;2023-09-19T08:21:59;3.08;;;1.90;;
22449;SDS011;11392;57.390;-2.468;2023-09-19T08:24:27;3.65;;;1.50;;
22449;SDS011;11392;57.390;-2.468;2023-09-19T08:26:55;2.90;;;1.10;;
22449;SDS011;11392;57.390;-2.468;2023-09-19T08:29:23;2.22;;;1.20;;
22449;SDS011;11392;57.390;-2.468;2023-09-19T08:31:54;3.40;;;0.90;;
22449;SDS011;11392;57.390;-2.468;2023-09-19T08:34:23;2.15;;;0.80;;
22449;SDS011;11392;57.390;-2.468;2023-09-19T08:36:52;1.60;;;0.93;;
22449;SDS011;11392;57.390;-2.468;2023-09-19T08:39:23;1.30;;;0.70;;
22449;SDS011;11392;57.390;-2.468;2023-09-19T08:41:57;1.85;;;0.82;;
22449;SDS011;11392;57.390;-2.468;2023-09-19T08:44:28;3.67;;;0.95;;
22449;SDS011;11392;57.390;-2.468;2023-09-19T08:47:14;1.23;;;0.70;;
22449;SDS011;11392;57.390;-2.468;2023-09-19T08:49:53;2.95;;;0.95;;
22449;SDS011;11392;57.390;-2.468;2023-09-19T08:52:40;2.80;;;1.10;;
22449;SDS011;11392;57.390;-2.468;2023-09-19T08:55:12;2.72;;;0.82;;
22449;SDS011;11392;57.390;-2.468;2023-09-19T08:57:47;2.20;;;0.60;;
22449;SDS011;11392;57.390;-2.468;2023-09-19T09:00:16;1.45;;;0.60;;
22449;SDS011;11392;57.390;-2.468;2023-09-19T09:02:47;2.60;;;0.82;;
22449;SDS011;11392;57.390;-2.468;2023-09-19T09:05:16;2.67;;;1.27;;
22449;SDS011;11392;57.390;-2.468;2023-09-19T09:07:49;2.28;;;0.60;;
22449;SDS011;11392;57.390;-2.468;2023-09-19T09:10:22;2.00;;;0.60;;
22449;SDS011;11392;57.390;-2.468;2023-09-19T09:12:51;1.80;;;0.60;;
22449;SDS011;11392;57.390;-2.468;2023-09-19T09:15:19;3.15;;;0.57;;
22449;SDS011;11392;57.390;-2.468;2023-09-19T09:17:51;4.75;;;0.98;;
22449;SDS011;11392;57.390;-2.468;2023-09-19T09:20:22;1.33;;;0.55;;
22449;SDS011;11392;57.390;-2.468;2023-09-19T09:22:52;2.05;;;0.85;;
22449;SDS011;11392;57.390;-2.468;2023-09-19T09:25:21;4.50;;;0.50;;
22449;SDS011;11392;57.390;-2.468;2023-09-19T09:28:00;1.67;;;0.68;;
22449;SDS011;11392;57.390;-2.468;2023-09-19T09:30:34;1.60;;;0.35;;
22449;SDS011;11392;57.390;-2.468;2023-09-19T09:35:51;1.05;;;0.35;;
22449;SDS011;11392;57.390;-2.468;2023-09-19T09:38:26;0.60;;;0.35;;
22449;SDS011;11392;57.390;-2.468;2023-09-19T09:40:55;1.77;;;0.50;;
22449;SDS011;11392;57.390;-2.468;2023-09-19T09:43:30;1.10;;;0.75;;
22449;SDS011;11392;57.390;-2.468;2023-09-19T09:46:15;0.77;;;0.50;;
22449;SDS011;11392;57.390;-2.468;2023-09-19T09:49:02;0.93;;;0.40;;
22449;SDS011;11392;57.390;-2.468;2023-09-19T09:57:41;0.85;;;0.30;;
22449;SDS011;11392;57.390;-2.468;2023-09-19T10:00:10;0.22;;;0.22;;
22449;SDS011;11392;57.390;-2.468;2023-09-19T10:02:38;1.17;;;0.50;;
22449;SDS011;11392;57.390;-2.468;2023-09-19T10:05:15;1.38;;;0.45;;
22449;SDS011;11392;57.390;-2.468;2023-09-19T10:07:55;1.25;;;0.40;;
22449;SDS011;11392;57.390;-2.468;2023-09-19T10:10:34;1.13;;;0.30;;
22449;SDS011;11392;57.390;-2.468;2023-09-19T10:13:06;0.43;;;0.38;;
22449;SDS011;11392;57.390;-2.468;2023-09-19T10:15:34;0.65;;;0.30;;
22449;SDS011;11392;57.390;-2.468;2023-09-19T10:18:06;1.52;;;0.63;;
22449;SDS011;11392;57.390;-2.468;2023-09-19T10:20:45;1.20;;;0.30;;
22449;SDS011;11392;57.390;-2.468;2023-09-19T10:23:12;0.90;;;0.43;;
22449;SDS011;11392;57.390;-2.468;2023-09-19T10:25:43;1.70;;;0.30;;
22449;SDS011;11392;57.390;-2.468;2023-09-19T10:28:14;0.68;;;0.30;;
22449;SDS011;11392;57.390;-2.468;2023-09-19T10:30:49;0.40;;;0.20;;
22449;SDS011;11392;57.390;-2.468;2023-09-19T10:33:19;1.17;;;0.57;;
22449;SDS011;11392;57.390;-2.468;2023-09-19T10:35:49;0.65;;;0.30;;
22449;SDS011;11392;57.390;-2.468;2023-09-19T10:38:24;0.80;;;0.40;;
22449;SDS011;11392;57.390;-2.468;2023-09-19T10:40:53;1.27;;;0.30;;
22449;SDS011;11392;57.390;-2.468;2023-09-19T10:43:25;1.05;;;0.32;;
22449;SDS011;11392;57.390;-2.468;2023-09-19T10:46:02;0.30;;;0.30;;
22449;SDS011;11392;57.390;-2.468;2023-09-19T10:48:33;0.30;;;0.30;;
22449;SDS011;11392;57.390;-2.468;2023-09-19T10:53:56;0.80;;;0.20;;
22449;SDS011;11392;57.390;-2.468;2023-09-19T10:56:29;0.80;;;0.30;;
22449;SDS011;11392;57.390;-2.468;2023-09-19T10:59:10;0.65;;;0.20;;
22449;SDS011;11392;57.390;-2.468;2023-09-19T11:01:49;1.95;;;0.30;;
22449;SDS011;11392;57.390;-2.468;2023-09-19T11:07:26;0.57;;;0.20;;
22449;SDS011;11392;57.390;-2.468;2023-09-19T11:15:02;0.75;;;0.30;;
22449;SDS011;11392;57.390;-2.468;2023-09-19T11:17:40;1.00;;;0.20;;
22449;SDS011;11392;57.390;-2.468;2023-09-19T11:30:39;1.27;;;0.15;;
22449;SDS011;11392;57.390;-2.468;2023-09-19T11:33:23;0.68;;;0.20;;
22449;SDS011;11392;57.390;-2.468;2023-09-19T11:36:13;0.10;;;0.10;;
22449;SDS011;11392;57.390;-2.468;2023-09-19T11:43:52;0.52;;;0.20;;
22449;SDS011;11392;57.390;-2.468;2023-09-19T11:46:23;0.10;;;0.10;;
22449;SDS011;11392;57.390;-2.468;2023-09-19T11:48:51;0.32;;;0.10;;
22449;SDS011;11392;57.390;-2.468;2023-09-19T11:51:22;0.57;;;0.20;;
22449;SDS011;11392;57.390;-2.468;2023-09-19T11:53:54;1.45;;;0.20;;
22449;SDS011;11392;57.390;-2.468;2023-09-19T11:56:30;0.45;;;0.10;;
22449;SDS011;11392;57.390;-2.468;2023-09-19T11:58:58;0.10;;;0.10;;
22449;SDS011;11392;57.390;-2.468;2023-09-19T12:01:32;1.15;;;0.20;;
22449;SDS011;11392;57.390;-2.468;2023-09-19T12:04:02;0.45;;;0.20;;
22449;SDS011;11392;57.390;-2.468;2023-09-19T12:06:31;0.35;;;0.20;;
22449;SDS011;11392;57.390;-2.468;2023-09-19T12:09:02;0.95;;;0.10;;
22449;SDS011;11392;57.390;-2.468;2023-09-19T12:11:33;1.65;;;0.20;;
22449;SDS011;11392;57.390;-2.468;2023-09-19T12:14:10;0.30;;;0.25;;
22449;SDS011;11392;57.390;-2.468;2023-09-19T12:16:37;0.90;;;0.10;;
22449;SDS011;11392;57.390;-2.468;2023-09-19T12:19:17;0.10;;;0.10;;
22449;SDS011;11392;57.390;-2.468;2023-09-19T12:22:02;1.00;;;0.20;;
22449;SDS011;11392;57.390;-2.468;2023-09-19T12:24:35;0.15;;;0.10;;
22449;SDS011;11392;57.390;-2.468;2023-09-19T12:27:05;0.73;;;0.20;;
22449;SDS011;11392;57.390;-2.468;2023-09-19T12:29:43;0.40;;;0.20;;
22449;SDS011;11392;57.390;-2.468;2023-09-19T12:32:12;0.70;;;0.20;;
22449;SDS011;11392;57.390;-2.468;2023-09-19T12:34:40;0.93;;;0.22;;
22449;SDS011;11392;57.390;-2.468;2023-09-19T12:37:11;0.52;;;0.15;;
22449;SDS011;11392;57.390;-2.468;2023-09-19T12:39:42;0.25;;;0.20;;
22449;SDS011;11392;57.390;-2.468;2023-09-19T12:42:15;0.40;;;0.30;;
22449;SDS011;11392;57.390;-2.468;2023-09-19T12:44:45;0.52;;;0.28;;
22449;SDS011;11392;57.390;-2.468;2023-09-19T12:47:17;1.48;;;0.40;;
22449;SDS011;11392;57.390;-2.468;2023-09-19T12:52:40;0.63;;;0.20;;
22449;SDS011;11392;57.390;-2.468;2023-09-19T12:55:19;0.40;;;0.15;;
22449;SDS011;11392;57.390;-2.468;2023-09-19T13:00:37;0.47;;;0.15;;
22449;SDS011;11392;57.390;-2.468;2023-09-19T13:06:02;0.50;;;0.30;;
22449;SDS011;11392;57.390;-2.468;2023-09-19T13:08:31;0.30;;;0.30;;
22449;SDS011;11392;57.390;-2.468;2023-09-19T13:11:05;0.50;;;0.50;;
22449;SDS011;11392;57.390;-2.468;2023-09-19T13:13:37;0.73;;;0.30;;
22449;SDS011;11392;57.390;-2.468;2023-09-19T13:16:16;0.98;;;0.35;;
22449;SDS011;11392;57.390;-2.468;2023-09-19T13:18:49;1.48;;;1.05;;
22449;SDS011;11392;57.390;-2.468;2023-09-19T13:21:27;1.20;;;0.25;;
22449;SDS011;11392;57.390;-2.468;2023-09-19T13:24:19;0.40;;;0.40;;
22449;SDS011;11392;57.390;-2.468;2023-09-19T13:26:47;1.48;;;0.30;;
22449;SDS011;11392;57.390;-2.468;2023-09-19T13:29:14;0.30;;;0.28;;
22449;SDS011;11392;57.390;-2.468;2023-09-19T13:31:51;0.60;;;0.20;;
22449;SDS011;11392;57.390;-2.468;2023-09-19T13:34:21;0.30;;;0.30;;
22449;SDS011;11392;57.390;-2.468;2023-09-19T13:36:49;0.47;;;0.28;;
22449;SDS011;11392;57.390;-2.468;2023-09-19T13:39:16;0.45;;;0.45;;
22449;SDS011;11392;57.390;-2.468;2023-09-19T13:41:44;0.22;;;0.22;;
22449;SDS011;11392;57.390;-2.468;2023-09-19T13:44:13;0.73;;;0.20;;
22449;SDS011;11392;57.390;-2.468;2023-09-19T13:46:40;1.08;;;0.30;;
22449;SDS011;11392;57.390;-2.468;2023-09-19T13:49:12;0.63;;;0.20;;
22449;SDS011;11392;57.390;-2.468;2023-09-19T13:51:39;0.20;;;0.20;;
22449;SDS011;11392;57.390;-2.468;2023-09-19T13:54:10;0.50;;;0.20;;
22449;SDS011;11392;57.390;-2.468;2023-09-19T13:56:40;0.73;;;0.20;;
22449;SDS011;11392;57.390;-2.468;2023-09-19T13:59:07;0.50;;;0.40;;
22449;SDS011;11392;57.390;-2.468;2023-09-19T14:01:34;0.20;;;0.20;;
22449;SDS011;11392;57.390;-2.468;2023-09-19T14:04:02;0.38;;;0.30;;
22449;SDS011;11392;57.390;-2.468;2023-09-19T14:06:29;1.30;;;0.50;;
22449;SDS011;11392;57.390;-2.468;2023-09-19T14:08:56;0.35;;;0.30;;
22449;SDS011;11392;57.390;-2.468;2023-09-19T14:11:23;1.75;;;0.43;;
22449;SDS011;11392;57.390;-2.468;2023-09-19T14:13:50;0.93;;;0.38;;
22449;SDS011;11392;57.390;-2.468;2023-09-19T14:16:21;0.95;;;0.30;;
22449;SDS011;11392;57.390;-2.468;2023-09-19T14:18:51;0.22;;;0.20;;
22449;SDS011;11392;57.390;-2.468;2023-09-19T14:21:18;0.80;;;0.30;;
22449;SDS011;11392;57.390;-2.468;2023-09-19T14:23:45;0.30;;;0.30;;
22449;SDS011;11392;57.390;-2.468;2023-09-19T14:26:12;0.63;;;0.22;;
22449;SDS011;11392;57.390;-2.468;2023-09-19T14:28:40;0.20;;;0.20;;
22449;SDS011;11392;57.390;-2.468;2023-09-19T14:31:07;0.82;;;0.22;;
22449;SDS011;11392;57.390;-2.468;2023-09-19T14:33:35;0.73;;;0.40;;
22449;SDS011;11392;57.390;-2.468;2023-09-19T14:36:05;0.30;;;0.20;;
22449;SDS011;11392;57.390;-2.468;2023-09-19T14:38:36;0.93;;;0.40;;
22449;SDS011;11392;57.390;-2.468;2023-09-19T14:41:05;1.70;;;0.30;;
22449;SDS011;11392;57.390;-2.468;2023-09-19T14:43:33;0.22;;;0.22;;
22449;SDS011;11392;57.390;-2.468;2023-09-19T14:46:07;0.55;;;0.40;;
22449;SDS011;11392;57.390;-2.468;2023-09-19T14:48:36;2.90;;;0.60;;
22449;SDS011;11392;57.390;-2.468;2023-09-19T14:51:04;0.85;;;0.35;;
22449;SDS011;11392;57.390;-2.468;2023-09-19T14:53:32;2.22;;;0.50;;
22449;SDS011;11392;57.390;-2.468;2023-09-19T14:56:02;3.03;;;0.47;;
22449;SDS011;11392;57.390;-2.468;2023-09-19T14:58:31;1.08;;;0.32;;
22449;SDS011;11392;57.390;-2.468;2023-09-19T15:01:05;0.73;;;0.20;;
22449;SDS011;11392;57.390;-2.468;2023-09-19T15:03:34;0.30;;;0.30;;
22449;SDS011;11392;57.390;-2.468;2023-09-19T15:06:07;0.32;;;0.22;;
22449;SDS011;11392;57.390;-2.468;2023-09-19T15:08:36;1.05;;;0.40;;
22449;SDS011;11392;57.390;-2.468;2023-09-19T15:11:07;0.55;;;0.32;;
22449;SDS011;11392;57.390;-2.468;2023-09-19T15:13:34;1.48;;;0.40;;
22449;SDS011;11392;57.390;-2.468;2023-09-19T15:16:06;0.47;;;0.32;;
22449;SDS011;11392;57.390;-2.468;2023-09-19T15:18:37;0.75;;;0.40;;
22449;SDS011;11392;57.390;-2.468;2023-09-19T15:21:07;0.77;;;0.50;;
22449;SDS011;11392;57.390;-2.468;2023-09-19T15:23:37;0.57;;;0.30;;
22449;SDS011;11392;57.390;-2.468;2023-09-19T15:26:10;0.63;;;0.52;;
22449;SDS011;11392;57.390;-2.468;2023-09-19T15:28:39;1.30;;;0.38;;
22449;SDS011;11392;57.390;-2.468;2023-09-19T15:31:07;0.30;;;0.30;;
22449;SDS011;11392;57.390;-2.468;2023-09-19T15:33:36;0.90;;;0.43;;
22449;SDS011;11392;57.390;-2.468;2023-09-19T15:36:10;0.63;;;0.43;;
22449;SDS011;11392;57.390;-2.468;2023-09-19T15:41:30;0.82;;;0.40;;
22449;SDS011;11392;57.390;-2.468;2023-09-19T15:43:59;1.75;;;0.60;;
22449;SDS011;11392;57.390;-2.468;2023-09-19T15:46:28;1.50;;;0.43;;
22449;SDS011;11392;57.390;-2.468;2023-09-19T15:48:57;0.85;;;0.68;;
22449;SDS011;11392;57.390;-2.468;2023-09-19T15:51:24;2.17;;;0.57;;
22449;SDS011;11392;57.390;-2.468;2023-09-19T15:53:52;2.10;;;0.70;;
22449;SDS011;11392;57.390;-2.468;2023-09-19T15:56:20;0.55;;;0.43;;